Sheridan, WY (82801)

5:54 PM MDT on August 26, 2016 (GMT -0600)
South Sheridan | | Change Station

Elev 3770 ft 44.79 °N, 106.95 °W | Updated 8 seconds ago

Mostly Cloudy
Mostly Cloudy
70.2 °F
Feels Like 77 °F
N
0.0
Wind Variable Wind from SW
Gusts 0.0 mph

Today
High -- | Low -- °F
--% Chance of Precip.
Yesterday
High -- | Low -- °F
Precip. -- in
Pressure 29.95 in
Visibility 10.0 miles
Clouds Few 6000 ft
Scattered Clouds 9000 ft
Mostly Cloudy 11000 ft
Heat Index 77 °F
Dew Point 42 °F
Humidity 36%
Rainfall 0.00 in
Snow Depth Not available.
6:23 AM 7:54 PM
Waning Crescent, 30% visible
METAR KSHR 262253Z AUTO 00000KT 10SM FEW060 SCT090 BKN110 22/04 A3001 RMK AO2 SLP140 T02170044
Pressure 29.95 in
Visibility 10.0 miles
Clouds Few 6000 ft
Scattered Clouds 9000 ft
Mostly Cloudy 11000 ft
Heat Index 77 °F
Dew Point 42 °F
Humidity 36%
Rainfall 0.00 in
Snow Depth Not available.
6:23 AM 7:54 PM
Waning Crescent, 30% visible
METAR KSHR 262253Z AUTO 00000KT 10SM FEW060 SCT090 BKN110 22/04 A3001 RMK AO2 SLP140 T02170044

10-Day Weather Forecast

Almanac

Astronomy

Aug. 26, 2016 Rise Set
Actual Time
Civil Twilight
Nautical Twilight
Astronomical Twilight
Moon
Length of Visible Light
Length of Day
Tomorrow will be .
, % of the Moon is Illuminated

Today's Extremes

State Highs State Lows

Community

WunderPhotos

Upload Photos

1,935,255 photos uploaded!

WunderBlog® & News

Nearby

Air Quality

  Air Quality AQ Index Pollutant
Not available.

Snow Depth

Station Depth Elevation

Earthquake Activity

City Distance Mag. Time & Date
Minimum magnitude displayed is 2.5.

Coastal Water Temperatures

Place Temperature

Stations

Nearby Weather Stations

Station Location Temp. Windchill Dew Point Humidity Wind Precip. Elev Updated Type
                   

Watches & Warnings

There are currently no watches in effect.